Time;durP1;ratioP1;P1;durP2;ratioP2;P2;SDS_P1;SDS_P2;PMS_P1;PMS_P2;Temp;Humidity;BMP_temperature;BMP_pressure;BME280_temperature;BME280_humidity;BME280_pressure;Samples;Min_cycle;Max_cycle;Signal;HPM_P1;HPM_P2
2022/01/29 00:00:22;;;;;;;0.43;0.43;;;6.10;99.90;;;;;;5062230;28;20106;-67
2022/01/29 00:02:48;;;;;;;0.00;0.00;;;6.10;99.90;;;;;;5060967;28;20036;-66
2022/01/29 00:05:13;;;;;;;0.85;0.43;;;6.10;99.90;;;;;;5060062;28;20064;-66
2022/01/29 00:07:41;;;;;;;0.38;0.35;;;6.10;99.90;;;;;;5060261;28;20071;-66
2022/01/29 00:10:09;;;;;;;0.28;0.28;;;6.10;99.90;;;;;;5059781;28;20089;-67
2022/01/29 00:12:35;;;;;;;0.38;0.30;;;6.10;99.90;;;;;;5061204;28;20049;-67
2022/01/29 00:15:01;;;;;;;0.00;0.00;;;6.10;99.90;;;;;;5061483;28;20044;-67
2022/01/29 00:17:26;;;;;;;0.80;0.28;;;6.10;99.90;;;;;;5061753;28;20118;-67
2022/01/29 00:19:52;;;;;;;0.00;0.00;;;6.20;99.90;;;;;;5061916;28;20131;-69
2022/01/29 00:22:18;;;;;;;0.00;0.00;;;6.20;99.90;;;;;;5060034;28;20380;-66
2022/01/29 00:24:43;;;;;;;0.08;0.08;;;6.20;99.90;;;;;;5060640;28;20049;-67
2022/01/29 00:27:10;;;;;;;0.00;0.00;;;6.30;99.90;;;;;;5063397;28;20044;-67
2022/01/29 00:29:42;;;;;;;0.47;0.38;;;6.20;99.90;;;;;;5069872;28;20063;-67
2022/01/29 00:32:10;;;;;;;0.20;0.20;;;6.20;99.90;;;;;;5060108;28;20043;-67
2022/01/29 00:34:36;;;;;;;1.17;0.80;;;6.20;99.90;;;;;;5061491;28;20124;-67
2022/01/29 00:37:02;;;;;;;0.90;0.80;;;6.20;99.90;;;;;;5062251;28;20048;-67
2022/01/29 00:39:28;;;;;;;0.38;0.38;;;6.20;99.90;;;;;;5062939;28;20049;-67
2022/01/29 00:41:53;;;;;;;0.00;0.00;;;6.20;99.90;;;;;;5065065;28;20064;-69
2022/01/29 00:44:19;;;;;;;1.90;1.08;;;6.10;99.90;;;;;;5065515;28;20143;-67
2022/01/29 00:46:45;;;;;;;0.00;0.00;;;6.10;99.90;;;;;;5064021;28;20385;-67
2022/01/29 00:49:12;;;;;;;0.20;0.20;;;6.10;99.90;;;;;;5063171;28;20040;-68
2022/01/29 00:51:38;;;;;;;0.00;0.00;;;6.10;99.90;;;;;;5063691;28;20049;-67
2022/01/29 00:54:04;;;;;;;0.00;0.00;;;6.10;99.90;;;;;;5064138;28;20048;-67
2022/01/29 00:56:30;;;;;;;0.00;0.00;;;6.10;99.90;;;;;;5063457;28;20059;-68
2022/01/29 00:58:56;;;;;;;0.28;0.25;;;6.10;99.90;;;;;;5064220;28;20634;-68
2022/01/29 01:01:22;;;;;;;0.00;0.00;;;6.00;99.90;;;;;;5065550;28;20047;-68
2022/01/29 01:03:47;;;;;;;0.00;0.00;;;6.30;99.90;;;;;;5064993;28;20075;-67
2022/01/29 01:06:13;;;;;;;4.00;0.88;;;6.00;99.90;;;;;;5064539;28;20067;-67
2022/01/29 01:08:39;;;;;;;0.10;0.10;;;6.00;99.90;;;;;;5063373;28;20410;-67
2022/01/29 01:11:05;;;;;;;0.20;0.20;;;6.00;99.90;;;;;;5064431;28;20044;-67
2022/01/29 01:13:32;;;;;;;0.13;0.13;;;6.30;99.90;;;;;;5064465;28;20112;-68
2022/01/29 01:15:58;;;;;;;0.75;0.35;;;6.30;99.90;;;;;;5063521;28;20525;-67
2022/01/29 01:18:23;;;;;;;0.08;0.03;;;6.00;99.90;;;;;;5064551;28;20128;-68
2022/01/29 01:20:49;;;;;;;0.00;0.00;;;6.00;99.90;;;;;;5063504;28;20662;-67
2022/01/29 01:23:15;;;;;;;0.00;0.00;;;6.00;99.90;;;;;;5063813;28;20051;-67
2022/01/29 01:25:41;;;;;;;0.22;0.22;;;5.80;99.90;;;;;;5064569;28;20041;-67
2022/01/29 01:28:06;;;;;;;0.00;0.00;;;6.00;99.90;;;;;;5069261;28;20087;-67
2022/01/29 01:30:33;;;;;;;0.52;0.35;;;6.10;99.90;;;;;;5069748;28;20044;-67
2022/01/29 01:33:01;;;;;;;2.05;1.85;;;6.10;99.90;;;;;;5064159;28;20067;-67
2022/01/29 01:35:33;;;;;;;0.10;0.10;;;6.10;99.90;;;;;;5064233;28;20053;-67
2022/01/29 01:40:48;;;;;;;0.00;0.00;;;6.10;99.90;;;;;;5064123;28;20131;-67
2022/01/29 01:43:14;;;;;;;0.05;0.05;;;6.20;99.90;;;;;;5062088;28;20713;-67
2022/01/29 01:45:40;;;;;;;0.68;0.60;;;6.20;99.90;;;;;;5063937;28;20072;-67
2022/01/29 01:48:06;;;;;;;0.20;0.20;;;6.30;99.90;;;;;;5063792;28;20048;-67
2022/01/29 01:50:33;;;;;;;0.00;0.00;;;6.30;99.90;;;;;;5063820;28;20391;-67
2022/01/29 01:52:59;;;;;;;0.00;0.00;;;6.30;99.90;;;;;;5061889;28;20044;-67
2022/01/29 01:55:25;;;;;;;0.17;0.17;;;6.30;99.90;;;;;;5063327;28;20056;-67
2022/01/29 01:57:52;;;;;;;4.57;3.10;;;6.30;99.90;;;;;;5064316;28;20121;-66
2022/01/29 02:00:18;;;;;;;0.00;0.00;;;6.40;99.90;;;;;;5063365;28;20102;-67
2022/01/29 02:02:44;;;;;;;0.00;0.00;;;6.40;99.90;;;;;;5063675;28;20083;-66
2022/01/29 02:05:11;;;;;;;0.45;0.43;;;6.50;99.90;;;;;;5061964;28;20071;-67
2022/01/29 02:07:36;;;;;;;0.10;0.10;;;6.50;99.90;;;;;;5061600;28;20487;-67
2022/01/29 02:10:08;;;;;;;0.00;0.00;;;6.60;99.90;;;;;;5061219;28;20127;-67
2022/01/29 02:13:01;;;;;;;0.00;0.00;;;6.50;99.90;;;;;;5014591;22;1823530;-67
2022/01/29 02:15:28;;;;;;;0.20;0.20;;;7.20;99.90;;;;;;5078410;28;20054;-67
2022/01/29 02:17:53;;;;;;;0.00;0.00;;;6.60;99.90;;;;;;5082776;28;20075;-67
2022/01/29 02:20:25;;;;;;;0.22;0.22;;;6.60;99.90;;;;;;5083869;28;20094;-67
2022/01/29 02:22:50;;;;;;;0.25;0.20;;;6.60;99.90;;;;;;5082515;28;20076;-67
2022/01/29 02:25:29;;;;;;;0.45;0.40;;;6.70;99.90;;;;;;5082479;28;20094;-67
2022/01/29 02:27:57;;;;;;;0.03;0.03;;;6.80;99.90;;;;;;5075543;28;20067;-67
2022/01/29 02:30:23;;;;;;;1.75;1.35;;;8.30;99.90;;;;;;5069150;28;20454;-67
2022/01/29 02:32:49;;;;;;;0.00;0.00;;;6.90;99.90;;;;;;5063003;28;20048;-67
2022/01/29 02:35:14;;;;;;;1.38;1.38;;;8.00;99.90;;;;;;5061697;28;20655;-67
2022/01/29 02:37:40;;;;;;;0.10;0.10;;;6.90;99.90;;;;;;5063206;28;20044;-66
2022/01/29 02:40:06;;;;;;;0.10;0.10;;;8.20;99.90;;;;;;5061079;28;20048;-66
2022/01/29 02:42:32;;;;;;;0.10;0.10;;;7.00;99.90;;;;;;5062281;28;20045;-67
2022/01/29 02:44:57;;;;;;;0.52;0.52;;;7.00;99.90;;;;;;5061486;28;20045;-66
2022/01/29 02:47:33;;;;;;;0.30;0.30;;;7.00;99.90;;;;;;5063566;28;20115;-66
2022/01/29 02:49:58;;;;;;;0.98;0.32;;;7.00;99.90;;;;;;5061969;28;20045;-66
2022/01/29 02:52:24;;;;;;;0.13;0.13;;;8.40;99.90;;;;;;5062898;28;20051;-67
2022/01/29 02:54:49;;;;;;;0.00;0.00;;;7.10;99.90;;;;;;5062468;28;20045;-66
2022/01/29 02:57:15;;;;;;;0.35;0.20;;;6.90;99.90;;;;;;5063074;28;20033;-67
2022/01/29 02:59:41;;;;;;;0.00;0.00;;;7.00;99.90;;;;;;5061539;28;20044;-67
2022/01/29 03:02:06;;;;;;;0.05;0.05;;;7.20;99.90;;;;;;5061460;28;20045;-66
2022/01/29 03:04:32;;;;;;;0.10;0.10;;;7.10;99.90;;;;;;5062586;28;20052;-67
2022/01/29 03:06:58;;;;;;;0.40;0.13;;;7.10;99.90;;;;;;5060989;28;20054;-67
2022/01/29 03:09:24;;;;;;;0.73;0.65;;;7.10;99.90;;;;;;5061479;28;20049;-67
2022/01/29 03:11:49;;;;;;;0.20;0.20;;;7.20;99.90;;;;;;5061365;28;20482;-66
2022/01/29 03:14:15;;;;;;;2.17;0.75;;;7.10;99.90;;;;;;5062354;28;20059;-66
2022/01/29 03:16:41;;;;;;;1.30;0.45;;;7.20;99.90;;;;;;5062403;28;20044;-66
2022/01/29 03:19:07;;;;;;;0.00;0.00;;;7.70;99.90;;;;;;5061883;28;20052;-66
2022/01/29 03:21:32;;;;;;;0.55;0.32;;;7.20;99.90;;;;;;5062322;28;20052;-67
2022/01/29 03:23:58;;;;;;;0.05;0.05;;;7.20;99.90;;;;;;5061868;28;20048;-66
2022/01/29 03:26:23;;;;;;;0.00;0.00;;;7.30;99.90;;;;;;5062691;28;20040;-67
2022/01/29 03:28:49;;;;;;;0.10;0.10;;;7.20;99.90;;;;;;5071898;28;20059;-66
2022/01/29 03:31:15;;;;;;;0.00;0.00;;;7.20;99.90;;;;;;5061933;28;20131;-66
2022/01/29 03:33:40;;;;;;;0.10;0.10;;;7.20;99.90;;;;;;5061886;28;20117;-66
2022/01/29 03:36:06;;;;;;;0.20;0.20;;;7.20;99.90;;;;;;5062139;28;20128;-67
2022/01/29 03:38:32;;;;;;;0.00;0.00;;;7.20;99.90;;;;;;5060893;28;20043;-67
2022/01/29 03:40:59;;;;;;;0.40;0.40;;;7.90;99.90;;;;;;5061874;28;20052;-67
2022/01/29 03:43:32;;;;;;;1.13;0.70;;;8.60;99.90;;;;;;5062262;28;20087;-67
2022/01/29 03:45:58;;;;;;;0.08;0.08;;;7.30;99.90;;;;;;5060664;28;20048;-66
2022/01/29 03:48:24;;;;;;;1.00;1.00;;;7.30;99.90;;;;;;5061960;28;20055;-67
2022/01/29 03:50:49;;;;;;;0.00;0.00;;;8.60;99.90;;;;;;5061245;28;20543;-66
2022/01/29 03:53:15;;;;;;;0.00;0.00;;;7.30;99.90;;;;;;5061291;28;20040;-66
2022/01/29 03:55:40;;;;;;;0.00;0.00;;;7.30;99.90;;;;;;5062068;28;20137;-66
2022/01/29 03:58:06;;;;;;;0.00;0.00;;;7.30;99.90;;;;;;5077180;28;20780;-67
2022/01/29 04:00:32;;;;;;;0.05;0.05;;;7.30;99.90;;;;;;5077127;28;20641;-66
2022/01/29 04:02:57;;;;;;;1.27;1.17;;;7.30;99.90;;;;;;5061912;28;20040;-66
2022/01/29 04:05:26;;;;;;;0.77;0.13;;;7.30;99.90;;;;;;5062172;28;20067;-66
2022/01/29 04:07:51;;;;;;;10.93;1.45;;;7.40;99.90;;;;;;5060379;28;20443;-66
2022/01/29 04:10:19;;;;;;;0.00;0.00;;;7.30;99.90;;;;;;5077695;28;20169;-66
2022/01/29 04:12:48;;;;;;;0.05;0.05;;;7.80;99.90;;;;;;5065161;28;20071;-66
2022/01/29 04:15:14;;;;;;;0.00;0.00;;;7.40;99.90;;;;;;5065444;28;20047;-66
2022/01/29 04:17:39;;;;;;;0.30;0.20;;;8.20;99.90;;;;;;5065721;28;20041;-66
2022/01/29 04:20:06;;;;;;;0.13;0.13;;;7.40;99.90;;;;;;5064369;28;20536;-66
2022/01/29 04:22:31;;;;;;;0.25;0.25;;;7.50;99.90;;;;;;5064217;28;20051;-67
2022/01/29 04:24:57;;;;;;;3.60;1.08;;;7.40;99.90;;;;;;5064283;28;20037;-66
2022/01/29 04:27:32;;;;;;;0.10;0.10;;;7.40;99.90;;;;;;5068562;28;20039;-65
2022/01/29 04:30:01;;;;;;;0.00;0.00;;;7.40;99.90;;;;;;5074349;28;20125;-66
2022/01/29 04:32:57;;;;;;;0.03;0.03;;;7.50;99.90;;;;;;5047148;28;20082;-66
2022/01/29 04:35:19;;;;;;;0.00;0.00;;;7.70;99.90;;;;;;5064976;28;20048;-66
2022/01/29 04:37:44;;;;;;;0.00;0.00;;;7.30;99.90;;;;;;5064344;28;20485;-66
2022/01/29 04:40:11;;;;;;;0.20;0.20;;;7.50;99.90;;;;;;5080371;28;20144;-66
2022/01/29 04:42:36;;;;;;;0.28;0.28;;;7.50;99.90;;;;;;5065203;28;20070;-66
2022/01/29 04:45:03;;;;;;;0.25;0.20;;;7.50;99.90;;;;;;5065396;28;20068;-65
2022/01/29 04:47:28;;;;;;;0.00;0.00;;;7.50;99.90;;;;;;5065101;28;20045;-66
2022/01/29 04:49:54;;;;;;;0.25;0.20;;;7.60;99.90;;;;;;5063418;28;20105;-66
2022/01/29 04:52:20;;;;;;;0.10;0.10;;;7.80;99.90;;;;;;5065282;28;20049;-66
2022/01/29 04:54:45;;;;;;;0.05;0.05;;;8.10;99.90;;;;;;5079995;28;20047;-66
2022/01/29 04:57:11;;;;;;;0.30;0.13;;;7.60;99.90;;;;;;5064778;28;20124;-66
2022/01/29 04:59:36;;;;;;;0.65;0.65;;;7.60;99.90;;;;;;5064916;28;20052;-67
2022/01/29 05:02:03;;;;;;;0.10;0.10;;;7.70;99.90;;;;;;5063483;28;20040;-66
2022/01/29 05:04:29;;;;;;;1.88;0.85;;;7.90;99.90;;;;;;5065063;28;20552;-66
2022/01/29 05:06:54;;;;;;;0.00;0.00;;;7.70;99.90;;;;;;5062746;28;20149;-66
2022/01/29 05:09:20;;;;;;;0.05;0.05;;;7.70;99.90;;;;;;5064668;28;20084;-65
2022/01/29 05:11:49;;;;;;;1.10;0.80;;;7.80;99.90;;;;;;5080071;28;20084;-66
2022/01/29 05:14:29;;;;;;;0.15;0.15;;;7.70;99.90;;;;;;5064509;28;20055;-66
2022/01/29 05:26:48;;;;;;;0.00;0.00;;;7.70;99.90;;;;;;5080089;28;20580;-66
2022/01/29 05:27:54;;;;;;;0.20;0.20;;;7.70;99.90;;;;;;5068526;28;20500;-66
2022/01/29 05:30:20;;;;;;;0.08;0.08;;;7.70;99.90;;;;;;5072144;28;20040;-65
2022/01/29 05:32:45;;;;;;;0.00;0.00;;;7.70;99.90;;;;;;5062757;28;20045;-66
2022/01/29 05:35:11;;;;;;;0.22;0.15;;;7.70;99.90;;;;;;5064137;28;20052;-65
2022/01/29 05:37:37;;;;;;;0.00;0.00;;;8.70;99.90;;;;;;5063781;28;20783;-66
2022/01/29 05:40:03;;;;;;;0.35;0.15;;;8.20;99.90;;;;;;5064069;28;20055;-66
2022/01/29 05:42:28;;;;;;;0.52;0.32;;;7.80;99.90;;;;;;5079316;28;20066;-66
2022/01/29 05:44:54;;;;;;;0.00;0.00;;;7.80;99.90;;;;;;5063909;28;20040;-66
2022/01/29 05:47:19;;;;;;;0.10;0.10;;;7.80;99.90;;;;;;5064751;28;20044;-66
2022/01/29 05:49:45;;;;;;;0.08;0.08;;;7.90;99.90;;;;;;5064169;28;20274;-66
2022/01/29 05:52:10;;;;;;;0.10;0.10;;;7.90;99.90;;;;;;5062171;28;20064;-65
2022/01/29 05:54:36;;;;;;;0.00;0.00;;;8.00;99.90;;;;;;5063330;28;20071;-66
2022/01/29 05:57:02;;;;;;;0.00;0.00;;;8.00;99.90;;;;;;5062575;28;20044;-66
2022/01/29 05:59:28;;;;;;;0.30;0.30;;;7.90;99.90;;;;;;5063988;28;20036;-65
2022/01/29 06:01:53;;;;;;;0.00;0.00;;;8.00;99.90;;;;;;5062059;28;20070;-67
2022/01/29 06:04:19;;;;;;;0.00;0.00;;;8.00;99.90;;;;;;5063990;28;20060;-66
2022/01/29 06:06:45;;;;;;;0.20;0.20;;;7.90;99.90;;;;;;5062382;28;20066;-65
2022/01/29 06:09:10;;;;;;;0.68;0.35;;;8.40;99.90;;;;;;5061860;28;20185;-65
2022/01/29 06:11:36;;;;;;;0.00;0.00;;;7.90;99.90;;;;;;5061578;28;20045;-65
2022/01/29 06:14:02;;;;;;;0.10;0.10;;;8.50;99.90;;;;;;5063596;28;20095;-66
2022/01/29 06:16:28;;;;;;;1.08;0.43;;;7.90;99.90;;;;;;5079206;28;20586;-66
2022/01/29 06:18:53;;;;;;;0.10;0.10;;;7.90;99.90;;;;;;5063429;28;20040;-66
2022/01/29 06:21:19;;;;;;;0.55;0.30;;;7.90;99.90;;;;;;5079147;28;20716;-65
2022/01/29 06:23:44;;;;;;;0.00;0.00;;;9.40;99.90;;;;;;5062670;28;20410;-65
2022/01/29 06:26:13;;;;;;;0.28;0.28;;;8.00;99.90;;;;;;5063004;28;20037;-66
2022/01/29 06:28:40;;;;;;;0.32;0.30;;;9.30;99.90;;;;;;5073415;28;20062;-66
2022/01/29 06:31:06;;;;;;;0.00;0.00;;;8.00;99.90;;;;;;5063149;28;20045;-65
2022/01/29 06:33:33;;;;;;;0.00;0.00;;;8.00;99.90;;;;;;5060795;28;20044;-66
2022/01/29 06:35:58;;;;;;;0.00;0.00;;;8.00;99.90;;;;;;5062895;28;20061;-68
2022/01/29 06:38:24;;;;;;;0.08;0.08;;;8.00;99.90;;;;;;5062387;28;20052;-67
2022/01/29 06:40:51;;;;;;;0.52;0.20;;;8.00;99.90;;;;;;5062876;28;20682;-66
2022/01/29 06:43:17;;;;;;;0.00;0.00;;;8.00;99.90;;;;;;5063297;28;20078;-66
2022/01/29 06:45:44;;;;;;;0.00;0.00;;;8.40;99.90;;;;;;5061609;28;20254;-66
2022/01/29 06:48:11;;;;;;;2.30;2.13;;;8.20;99.90;;;;;;5061873;28;20093;-66
2022/01/29 06:50:37;;;;;;;0.00;0.00;;;8.00;99.90;;;;;;5062315;28;20040;-65
2022/01/29 06:53:04;;;;;;;0.03;0.03;;;8.00;99.90;;;;;;5077603;28;20052;-66
2022/01/29 06:55:30;;;;;;;0.15;0.15;;;8.00;99.90;;;;;;5062865;28;20048;-66
2022/01/29 06:57:56;;;;;;;0.38;0.38;;;8.00;99.90;;;;;;5062842;28;20508;-66
2022/01/29 07:00:21;;;;;;;0.35;0.35;;;8.00;99.90;;;;;;5062573;28;20067;-67
2022/01/29 07:02:47;;;;;;;0.00;0.00;;;8.00;99.90;;;;;;5061340;28;20132;-66
2022/01/29 07:05:13;;;;;;;0.20;0.20;;;8.00;99.90;;;;;;5061276;28;20084;-66
2022/01/29 07:07:39;;;;;;;0.57;0.57;;;8.00;99.90;;;;;;5061596;28;20087;-66
2022/01/29 07:10:06;;;;;;;0.00;0.00;;;8.00;99.90;;;;;;5062196;28;20037;-66
2022/01/29 07:12:32;;;;;;;0.20;0.20;;;8.10;99.90;;;;;;5062213;28;20061;-66
2022/01/29 07:14:58;;;;;;;0.10;0.10;;;8.00;99.90;;;;;;5062716;28;20044;-66
2022/01/29 07:17:24;;;;;;;0.17;0.17;;;8.20;99.90;;;;;;5062229;28;20044;-67
2022/01/29 07:19:53;;;;;;;0.00;0.00;;;8.10;99.90;;;;;;5062640;28;20048;-66
2022/01/29 07:22:19;;;;;;;0.00;0.00;;;8.10;99.90;;;;;;5060613;28;20056;-66
2022/01/29 07:24:48;;;;;;;0.10;0.10;;;8.10;99.90;;;;;;5062255;28;20047;-65
2022/01/29 07:27:15;;;;;;;0.00;0.00;;;8.10;99.90;;;;;;5063892;28;20040;-67
2022/01/29 07:29:41;;;;;;;0.28;0.28;;;8.00;99.90;;;;;;5070695;28;20044;-66
2022/01/29 07:32:07;;;;;;;0.08;0.08;;;8.10;99.90;;;;;;5060631;28;20426;-65
2022/01/29 07:34:33;;;;;;;0.10;0.10;;;8.10;99.90;;;;;;5061786;28;20511;-65
2022/01/29 07:36:59;;;;;;;0.08;0.08;;;8.10;99.90;;;;;;5061390;28;20558;-65
2022/01/29 07:39:25;;;;;;;0.47;0.25;;;8.00;99.90;;;;;;5061570;28;20040;-66
2022/01/29 07:41:52;;;;;;;0.00;0.00;;;8.10;99.90;;;;;;5062347;28;20058;-65
2022/01/29 07:44:18;;;;;;;0.20;0.20;;;8.90;99.90;;;;;;5061933;28;20037;-65
2022/01/29 07:46:44;;;;;;;0.00;0.00;;;8.10;99.90;;;;;;5061347;28;20057;-65
2022/01/29 07:49:10;;;;;;;0.00;0.00;;;8.10;99.90;;;;;;5062044;28;20087;-65
2022/01/29 07:51:37;;;;;;;0.20;0.20;;;8.00;99.90;;;;;;5061657;28;20044;-66
2022/01/29 07:54:04;;;;;;;0.00;0.00;;;8.10;99.90;;;;;;5060970;28;20049;-65
2022/01/29 07:56:29;;;;;;;0.75;0.20;;;8.70;99.90;;;;;;5060052;28;20780;-67
2022/01/29 07:58:55;;;;;;;0.00;0.00;;;8.10;99.90;;;;;;5061326;28;20186;-66
2022/01/29 08:01:21;;;;;;;0.98;0.45;;;8.10;99.90;;;;;;5060691;28;20045;-65
2022/01/29 08:03:48;;;;;;;0.52;0.47;;;9.10;99.90;;;;;;5061199;28;20052;-65
2022/01/29 08:06:14;;;;;;;0.10;0.10;;;8.90;99.90;;;;;;5061468;28;20607;-65
2022/01/29 08:08:40;;;;;;;0.00;0.00;;;8.10;99.90;;;;;;5076702;28;20131;-66
2022/01/29 08:11:07;;;;;;;0.10;0.10;;;8.10;99.90;;;;;;5061705;28;20136;-65
2022/01/29 08:13:34;;;;;;;0.00;0.00;;;8.10;99.90;;;;;;5061263;28;20106;-63
2022/01/29 08:16:00;;;;;;;0.00;0.00;;;8.10;99.90;;;;;;5061513;28;20128;-66
2022/01/29 08:18:25;;;;;;;0.55;0.20;;;8.00;99.90;;;;;;5060414;28;20574;-58
2022/01/29 08:20:51;;;;;;;0.03;0.03;;;8.00;99.90;;;;;;5061943;28;20054;-65
2022/01/29 08:23:17;;;;;;;1.25;0.28;;;8.00;99.90;;;;;;5060257;28;20061;-65
2022/01/29 08:25:42;;;;;;;0.00;0.00;;;8.00;99.90;;;;;;5061477;28;20039;-66
2022/01/29 08:28:08;;;;;;;0.00;0.00;;;8.00;99.90;;;;;;5053641;28;20570;-65
2022/01/29 08:30:34;;;;;;;0.00;0.00;;;7.90;99.90;;;;;;5076544;28;20032;-66
2022/01/29 08:33:00;;;;;;;0.00;0.00;;;9.20;99.90;;;;;;5081100;28;20040;-65
2022/01/29 08:35:26;;;;;;;0.30;0.30;;;8.00;99.90;;;;;;5082048;28;20052;-66
2022/01/29 08:37:54;;;;;;;0.05;0.05;;;8.00;99.90;;;;;;5081661;28;20051;-65
2022/01/29 08:40:19;;;;;;;0.00;0.00;;;9.20;99.90;;;;;;5080570;28;20055;-66
2022/01/29 08:42:45;;;;;;;0.00;0.00;;;8.00;99.90;;;;;;5079447;28;20052;-66
2022/01/29 08:45:13;;;;;;;0.10;0.10;;;8.10;99.90;;;;;;5080359;28;20505;-66
2022/01/29 08:47:42;;;;;;;0.05;0.05;;;8.10;99.90;;;;;;5081450;28;20028;-66
2022/01/29 08:50:12;;;;;;;0.00;0.00;;;8.20;99.90;;;;;;5081510;28;20043;-66
2022/01/29 08:52:38;;;;;;;0.10;0.10;;;8.20;99.90;;;;;;5080648;28;20040;-67
2022/01/29 08:55:08;;;;;;;4.57;1.95;;;8.30;99.90;;;;;;5080073;28;20214;-66
2022/01/29 08:57:34;;;;;;;0.00;0.00;;;8.30;99.90;;;;;;5081880;28;20063;-66
2022/01/29 09:00:01;;;;;;;0.10;0.10;;;8.30;99.90;;;;;;5084551;28;20036;-66
2022/01/29 09:02:27;;;;;;;0.15;0.10;;;9.30;99.90;;;;;;5084868;28;20040;-67
2022/01/29 09:04:57;;;;;;;0.00;0.00;;;8.30;99.90;;;;;;5085496;28;20040;-66
2022/01/29 09:07:23;;;;;;;0.00;0.00;;;8.40;99.90;;;;;;5084784;28;20047;-66
2022/01/29 09:09:49;;;;;;;0.05;0.05;;;8.40;99.90;;;;;;5083590;28;20525;-67
2022/01/29 09:12:14;;;;;;;0.00;0.00;;;9.50;99.90;;;;;;5084423;28;20067;-66
2022/01/29 09:14:41;;;;;;;0.20;0.10;;;8.40;99.90;;;;;;5084568;28;20055;-66
2022/01/29 09:17:07;;;;;;;0.10;0.10;;;8.50;99.90;;;;;;5084916;28;20399;-67
2022/01/29 09:19:32;;;;;;;0.00;0.00;;;8.50;99.90;;;;;;5084587;28;20064;-67
2022/01/29 09:21:58;;;;;;;0.00;0.00;;;8.50;99.90;;;;;;5082624;28;20580;-67
2022/01/29 09:24:24;;;;;;;0.10;0.10;;;9.40;99.90;;;;;;5085327;28;20769;-67
2022/01/29 09:26:50;;;;;;;0.00;0.00;;;8.90;99.90;;;;;;5083848;28;20043;-67
2022/01/29 09:29:16;;;;;;;0.17;0.10;;;8.70;99.90;;;;;;5074776;28;20051;-68
2022/01/29 09:31:42;;;;;;;1.48;0.98;;;8.70;99.90;;;;;;5064467;28;20395;-67
2022/01/29 09:34:08;;;;;;;0.10;0.10;;;8.80;99.90;;;;;;5063950;28;20098;-67
2022/01/29 09:36:34;;;;;;;0.00;0.00;;;8.80;99.90;;;;;;5063870;28;20048;-67
2022/01/29 09:39:00;;;;;;;0.00;0.00;;;8.80;99.90;;;;;;5061876;28;20053;-66
2022/01/29 09:41:27;;;;;;;0.03;0.03;;;8.10;99.90;;;;;;5062765;28;20082;-64
2022/01/29 09:43:54;;;;;;;0.00;0.00;;;9.20;99.90;;;;;;5064252;28;20043;-66
2022/01/29 09:46:20;;;;;;;0.00;0.00;;;8.80;99.90;;;;;;5062630;28;20522;-65
2022/01/29 09:48:46;;;;;;;0.00;0.00;;;8.80;99.90;;;;;;5063790;28;20045;-64
2022/01/29 09:51:13;;;;;;;0.00;0.00;;;8.80;99.90;;;;;;5079354;28;20043;-64
2022/01/29 09:53:48;;;;;;;0.52;0.28;;;8.90;99.90;;;;;;5061737;28;20060;-64
2022/01/29 09:56:15;;;;;;;0.40;0.30;;;8.90;99.90;;;;;;5061744;28;20118;-63
2022/01/29 09:58:42;;;;;;;0.00;0.00;;;9.00;99.90;;;;;;5062661;28;20398;-64
2022/01/29 10:01:08;;;;;;;0.00;0.00;;;9.00;99.90;;;;;;5078957;28;20086;-64
2022/01/29 10:03:34;;;;;;;0.20;0.00;;;9.10;99.90;;;;;;5063168;28;20943;-64
2022/01/29 10:06:01;;;;;;;0.00;0.00;;;9.10;99.90;;;;;;5061867;28;20048;-64
2022/01/29 10:08:27;;;;;;;0.13;0.13;;;9.30;99.90;;;;;;5061614;28;20089;-64
2022/01/29 10:10:59;;;;;;;0.00;0.00;;;9.90;99.90;;;;;;5063213;28;20570;-65
2022/01/29 10:13:27;;;;;;;0.17;0.10;;;9.30;99.90;;;;;;5063164;28;20083;-65
2022/01/29 10:16:06;;;;;;;0.00;0.00;;;9.30;99.90;;;;;;5079205;28;20098;-64
2022/01/29 10:18:33;;;;;;;0.10;0.10;;;9.40;99.90;;;;;;5063316;28;20048;-64
2022/01/29 10:21:21;;;;;;;0.10;0.10;;;10.00;99.90;;;;;;5044876;28;20037;-63
2022/01/29 10:23:48;;;;;;;0.00;0.00;;;9.40;99.90;;;;;;5061217;28;20055;-63
2022/01/29 10:26:33;;;;;;;0.00;0.00;;;9.60;99.90;;;;;;5062690;28;20063;-64
2022/01/29 10:28:59;;;;;;;0.00;0.00;;;9.40;99.90;;;;;;5073402;28;20046;-65
2022/01/29 10:31:37;;;;;;;0.00;0.00;;;9.40;99.90;;;;;;5063259;28;20468;-63
2022/01/29 10:34:22;;;;;;;0.00;0.00;;;9.50;99.90;;;;;;5061807;28;20090;-64
2022/01/29 10:37:19;;;;;;;0.28;0.28;;;9.40;99.90;;;;;;5062653;28;20622;-63
2022/01/29 10:39:50;;;;;;;0.00;0.00;;;9.40;99.90;;;;;;5062637;28;20040;-63
2022/01/29 10:42:27;;;;;;;0.00;0.00;;;9.40;99.90;;;;;;5061312;28;20133;-63
2022/01/29 10:44:59;;;;;;;0.00;0.00;;;9.50;99.90;;;;;;5061781;28;20052;-63
2022/01/29 10:47:26;;;;;;;0.00;0.00;;;9.90;99.90;;;;;;5062831;28;20060;-64
2022/01/29 10:49:57;;;;;;;0.38;0.10;;;9.40;99.90;;;;;;5078539;28;20045;-63
2022/01/29 10:52:31;;;;;;;0.00;0.00;;;9.40;99.90;;;;;;5060862;28;20040;-62
2022/01/29 10:55:00;;;;;;;0.32;0.32;;;9.40;99.90;;;;;;5062308;28;20041;-64
2022/01/29 10:57:34;;;;;;;0.20;0.20;;;9.60;99.90;;;;;;5078114;28;20083;-63
2022/01/29 11:00:03;;;;;;;0.70;0.70;;;9.40;99.90;;;;;;5062704;28;20076;-63
2022/01/29 11:02:30;;;;;;;0.00;0.00;;;9.40;99.90;;;;;;5062800;28;20048;-64
2022/01/29 11:04:57;;;;;;;0.00;0.00;;;9.40;99.90;;;;;;5062356;28;20036;-64
2022/01/29 11:07:28;;;;;;;0.00;0.00;;;10.30;99.90;;;;;;5061517;28;20052;-63
2022/01/29 11:09:54;;;;;;;0.00;0.00;;;9.40;99.90;;;;;;5062265;28;20056;-66
2022/01/29 11:12:23;;;;;;;0.00;0.00;;;9.40;99.90;;;;;;5062585;28;20071;-63
2022/01/29 11:14:52;;;;;;;0.00;0.00;;;9.50;99.90;;;;;;5061846;28;20131;-63
2022/01/29 11:17:19;;;;;;;0.00;0.00;;;9.50;99.90;;;;;;5062393;28;20056;-63
2022/01/29 11:19:45;;;;;;;0.00;0.00;;;9.60;99.90;;;;;;5061634;28;20048;-64
2022/01/29 11:22:11;;;;;;;0.00;0.00;;;9.50;99.90;;;;;;5077215;28;20071;-63
2022/01/29 11:24:40;;;;;;;0.00;0.00;;;9.70;99.90;;;;;;5060310;28;20103;-63
2022/01/29 11:27:30;;;;;;;0.00;0.00;;;9.60;99.90;;;;;;5064140;28;20563;-68
2022/01/29 11:30:03;;;;;;;0.00;0.00;;;9.60;99.90;;;;;;5068774;28;20044;-67
2022/01/29 11:32:33;;;;;;;0.75;0.45;;;9.70;99.90;;;;;;5061954;28;20045;-69
2022/01/29 11:35:06;;;;;;;0.00;0.00;;;9.70;99.90;;;;;;5060600;28;20193;-69
2022/01/29 11:37:43;;;;;;;0.10;0.05;;;9.80;99.90;;;;;;5060390;28;20053;-69
2022/01/29 11:40:20;;;;;;;0.00;0.00;;;9.70;99.90;;;;;;5061599;28;20045;-67
2022/01/29 11:43:23;;;;;;;0.00;0.00;;;9.70;99.90;;;;;;5059633;28;20051;-67
2022/01/29 11:45:54;;;;;;;0.05;0.05;;;9.70;99.90;;;;;;5019301;28;20061;-67
2022/01/29 11:51:00;;;;;;;0.77;0.50;;;9.70;99.90;;;;;;5061101;28;20044;-66
2022/01/29 11:53:49;;;;;;;;;;;10.00;99.90;;;;;;5061721;28;20489;-69
2022/01/29 11:56:34;;;;;;;0.00;0.00;;;9.70;99.90;;;;;;5059991;28;19920;-69
2022/01/29 11:59:19;;;;;;;0.00;0.00;;;9.70;99.90;;;;;;5059989;28;20056;-67
2022/01/29 12:01:52;;;;;;;0.00;0.00;;;10.10;99.90;;;;;;5061779;28;20048;-66
2022/01/29 12:04:20;;;;;;;0.00;0.00;;;9.70;99.90;;;;;;5061851;28;20078;-66
2022/01/29 12:07:17;;;;;;;0.00;0.00;;;9.70;99.90;;;;;;5060782;28;20064;-67
2022/01/29 12:09:43;;;;;;;0.00;0.00;;;9.80;99.90;;;;;;5061047;28;20052;-67
2022/01/29 12:12:25;;;;;;;0.00;0.00;;;9.80;99.90;;;;;;5061226;28;20064;-68
2022/01/29 12:15:18;;;;;;;0.00;0.00;;;9.80;99.90;;;;;;5060467;28;20063;-67
2022/01/29 12:17:47;;;;;;;0.00;0.00;;;9.90;99.90;;;;;;5060201;28;20324;-67
2022/01/29 12:20:16;;;;;;;0.20;0.20;;;9.90;99.90;;;;;;5059946;28;20084;-67
2022/01/29 12:22:43;;;;;;;0.00;0.00;;;10.00;99.90;;;;;;5058841;28;20127;-68
2022/01/29 12:25:13;;;;;;;0.00;0.00;;;10.90;99.90;;;;;;5060126;28;20044;-67
2022/01/29 12:27:58;;;;;;;0.00;0.00;;;10.00;99.90;;;;;;5062983;28;20044;-67
2022/01/29 12:30:40;;;;;;;0.00;0.00;;;10.30;99.90;;;;;;5073263;28;20047;-68
2022/01/29 12:33:13;;;;;;;0.00;0.00;;;10.10;99.90;;;;;;5084171;28;20402;-68
2022/01/29 12:36:02;;;;;;;0.00;0.00;;;10.10;99.90;;;;;;5083635;28;20091;-68
2022/01/29 12:38:37;;;;;;;0.60;0.38;;;10.10;99.90;;;;;;5083427;28;20048;-68
2022/01/29 12:41:05;;;;;;;0.10;0.10;;;10.10;99.90;;;;;;5083522;28;20051;-69
2022/01/29 12:43:39;;;;;;;0.00;0.00;;;10.10;99.90;;;;;;5085301;28;20074;-67
2022/01/29 12:46:17;;;;;;;0.00;0.00;;;10.10;99.90;;;;;;5084005;28;20044;-68
2022/01/29 12:49:11;;;;;;;0.10;0.10;;;11.40;99.90;;;;;;5083720;28;20422;-68
2022/01/29 12:51:56;;;;;;;0.00;0.00;;;10.30;99.90;;;;;;5076221;28;20684;-66
2022/01/29 12:54:23;;;;;;;0.00;0.00;;;10.30;99.90;;;;;;5083276;28;20079;-66
2022/01/29 12:56:49;;;;;;;0.00;0.00;;;11.40;99.90;;;;;;5083629;28;20048;-66
2022/01/29 12:59:16;;;;;;;0.00;0.00;;;10.30;99.90;;;;;;5083430;28;20371;-66
2022/01/29 13:01:44;;;;;;;0.00;0.00;;;10.40;99.90;;;;;;5084037;28;20676;-67
2022/01/29 13:04:17;;;;;;;0.80;0.80;;;10.40;99.90;;;;;;5076252;28;20032;-67
2022/01/29 13:06:44;;;;;;;0.00;0.00;;;10.40;99.90;;;;;;5062320;28;20056;-67
2022/01/29 13:09:23;;;;;;;0.00;0.00;;;10.50;99.90;;;;;;5067714;28;20043;-66
2022/01/29 13:11:59;;;;;;;0.00;0.00;;;10.50;99.90;;;;;;5083538;28;20116;-66
2022/01/29 13:14:26;;;;;;;0.00;0.00;;;11.00;99.90;;;;;;5080876;28;20068;-67